Time;durP1;ratioP1;P1;durP2;ratioP2;P2;SDS_P1;SDS_P2;PMS_P1;PMS_P2;Temp;Humidity;BMP_temperature;BMP_pressure;BME280_temperature;BME280_humidity;BME280_pressure;Samples;Min_cycle;Max_cycle;Signal;HPM_P1;HPM_P2
2022/04/19 00:02:51;;;;;;;51.97;20.02;;;;;;;;;;6127835;29;20015;-82
2022/04/19 00:05:51;;;;;;;40.70;15.85;;;;;;;;;;6130137;29;20031;-82
2022/04/19 00:08:51;;;;;;;43.42;17.27;;;;;;;;;;6146052;28;20032;-82
2022/04/19 00:11:52;;;;;;;50.25;20.83;;;;;;;;;;6147849;29;20027;-82
2022/04/19 00:14:52;;;;;;;45.38;16.10;;;;;;;;;;6130567;29;20757;-82
2022/04/19 00:17:52;;;;;;;39.60;15.88;;;;;;;;;;6130226;29;20530;-82
2022/04/19 00:20:52;;;;;;;38.13;15.95;;;;;;;;;;6147721;29;20459;-82
2022/04/19 00:23:53;;;;;;;35.33;15.00;;;;;;;;;;6147755;29;20094;-82
2022/04/19 00:26:55;;;;;;;39.25;17.25;;;;;;;;;;6130092;29;20055;-82
2022/04/19 00:29:55;;;;;;;42.42;16.85;;;;;;;;;;6148127;29;20031;-82
2022/04/19 00:32:55;;;;;;;37.30;14.68;;;;;;;;;;6147311;29;20050;-82
2022/04/19 00:35:55;;;;;;;37.58;15.63;;;;;;;;;;6131208;29;20036;-81
2022/04/19 00:38:56;;;;;;;33.53;14.75;;;;;;;;;;6147615;29;20027;-82
2022/04/19 00:41:56;;;;;;;32.25;14.93;;;;;;;;;;6148294;29;20050;-83
2022/04/19 00:44:57;;;;;;;41.00;16.48;;;;;;;;;;6131434;29;20015;-82
2022/04/19 00:47:57;;;;;;;40.10;17.23;;;;;;;;;;6130954;29;20118;-82
2022/04/19 00:50:58;;;;;;;42.83;16.53;;;;;;;;;;6130590;29;20042;-82
2022/04/19 00:53:59;;;;;;;38.03;14.05;;;;;;;;;;6130630;29;20259;-82
2022/04/19 00:56:59;;;;;;;41.95;15.48;;;;;;;;;;6142060;29;20035;-82
2022/04/19 01:00:00;;;;;;;39.25;16.55;;;;;;;;;;6148313;29;20102;-82
2022/04/19 01:03:01;;;;;;;44.35;16.90;;;;;;;;;;6147444;29;20102;-82
2022/04/19 01:06:01;;;;;;;54.95;21.50;;;;;;;;;;6147701;29;20024;-82
2022/04/19 01:09:01;;;;;;;47.88;20.85;;;;;;;;;;6146617;29;20035;-82
2022/04/19 01:15:20;;;;;;;54.88;21.73;;;;;;;;;;6128064;29;20027;-82
2022/04/19 01:18:22;;;;;;;49.80;24.00;;;;;;;;;;6130474;29;20043;-82
2022/04/19 01:21:26;;;;;;;54.85;22.20;;;;;;;;;;6147214;28;20026;-82
2022/04/19 01:24:26;;;;;;;53.42;24.67;;;;;;;;;;6150627;28;20058;-82
2022/04/19 01:27:26;;;;;;;60.83;25.92;;;;;;;;;;6133412;28;20494;-82
2022/04/19 01:30:27;;;;;;;59.75;28.00;;;;;;;;;;6123577;29;20027;-82
2022/04/19 01:33:27;;;;;;;57.63;25.60;;;;;;;;;;6125092;29;20118;-82
2022/04/19 01:36:27;;;;;;;52.63;23.05;;;;;;;;;;6138446;29;20087;-82
2022/04/19 01:42:52;;;;;;;66.70;29.40;;;;;;;;;;6128781;29;20035;-82
2022/04/19 01:45:52;;;;;;;65.25;28.10;;;;;;;;;;6123512;29;20027;-82
2022/04/19 01:48:54;;;;;;;66.65;29.33;;;;;;;;;;6117965;29;20480;-82
2022/04/19 01:51:55;;;;;;;58.83;28.08;;;;;;;;;;6118370;29;20122;-82
2022/04/19 01:54:55;;;;;;;65.88;27.27;;;;;;;;;;6126695;29;20391;-82
2022/04/19 01:57:56;;;;;;;56.88;28.30;;;;;;;;;;6125791;29;20049;-82
2022/04/19 02:00:57;;;;;;;61.85;27.27;;;;;;;;;;6133296;29;20387;-82
2022/04/19 02:03:57;;;;;;;62.30;29.27;;;;;;;;;;6151590;29;20024;-82
2022/04/19 02:06:57;;;;;;;62.03;28.50;;;;;;;;;;6118001;29;20032;-82
2022/04/19 02:10:00;;;;;;;61.95;26.23;;;;;;;;;;6106639;29;20031;-82
2022/04/19 02:13:01;;;;;;;66.40;27.67;;;;;;;;;;6124827;28;20027;-82
2022/04/19 02:16:01;;;;;;;52.97;24.05;;;;;;;;;;6140257;29;20066;-82
2022/04/19 02:19:01;;;;;;;57.97;25.42;;;;;;;;;;6125838;29;20425;-82
2022/04/19 02:22:02;;;;;;;49.13;24.77;;;;;;;;;;6125344;29;20132;-82
2022/04/19 02:25:03;;;;;;;40.08;19.77;;;;;;;;;;6126910;29;20031;-82
2022/04/19 02:28:05;;;;;;;50.33;20.60;;;;;;;;;;6142946;29;20434;-82
2022/04/19 02:31:05;;;;;;;45.28;20.15;;;;;;;;;;6132415;29;20078;-82
2022/04/19 02:34:06;;;;;;;44.40;22.60;;;;;;;;;;6150294;29;20031;-82
2022/04/19 02:37:06;;;;;;;51.37;23.13;;;;;;;;;;6149356;29;20027;-82
2022/04/19 02:40:07;;;;;;;44.15;20.65;;;;;;;;;;6132553;29;20023;-82
2022/04/19 02:43:07;;;;;;;46.22;22.65;;;;;;;;;;6132666;29;20023;-82
2022/04/19 02:46:09;;;;;;;46.47;20.20;;;;;;;;;;6132393;29;20450;-82
2022/04/19 02:49:09;;;;;;;38.87;17.33;;;;;;;;;;6131488;29;20063;-81
2022/04/19 02:52:10;;;;;;;36.97;17.92;;;;;;;;;;6132299;29;20695;-82
2022/04/19 02:55:10;;;;;;;39.00;18.47;;;;;;;;;;6146838;29;20642;-82
2022/04/19 02:58:11;;;;;;;34.00;17.02;;;;;;;;;;6132390;29;20058;-82
2022/04/19 03:01:11;;;;;;;37.10;19.48;;;;;;;;;;6132133;29;20027;-82
2022/04/19 03:04:11;;;;;;;38.42;16.95;;;;;;;;;;6148995;29;20083;-82
2022/04/19 03:07:14;;;;;;;29.60;14.65;;;;;;;;;;6131120;29;20035;-82
2022/04/19 03:10:14;;;;;;;;;;;;;;;;;;6149067;29;20015;-82
2022/04/19 03:13:16;;;;;;;25.67;13.27;;;;;;;;;;6147792;29;19911;-82
2022/04/19 03:16:16;;;;;;;35.90;15.85;;;;;;;;;;6149166;28;20051;-82
2022/04/19 03:19:16;;;;;;;37.43;16.73;;;;;;;;;;6149372;29;20023;-82
2022/04/19 03:22:17;;;;;;;31.45;16.13;;;;;;;;;;6131740;29;20258;-82
2022/04/19 03:28:36;;;;;;;37.08;17.38;;;;;;;;;;6148703;29;20548;-82
2022/04/19 03:31:36;;;;;;;41.33;19.00;;;;;;;;;;6130762;29;20077;-82
2022/04/19 03:34:39;;;;;;;43.35;19.70;;;;;;;;;;6130311;28;20027;-82
2022/04/19 03:37:39;;;;;;;41.88;19.77;;;;;;;;;;6130128;29;20027;-82
2022/04/19 03:40:40;;;;;;;43.22;17.30;;;;;;;;;;6131521;29;20023;-82
2022/04/19 03:43:41;;;;;;;50.58;21.45;;;;;;;;;;6148155;29;20027;-82
2022/04/19 03:50:01;;;;;;;40.97;18.42;;;;;;;;;;6146723;29;20031;-82
2022/04/19 03:53:01;;;;;;;47.83;21.40;;;;;;;;;;6146586;29;20549;-82
2022/04/19 03:56:03;;;;;;;45.40;20.57;;;;;;;;;;6147416;28;20029;-82
2022/04/19 03:59:06;;;;;;;39.78;19.85;;;;;;;;;;6129195;28;20274;-82
2022/04/19 04:02:06;;;;;;;;;;;;;;;;;;6147941;29;20114;-82
2022/04/19 04:05:06;;;;;;;45.58;17.60;;;;;;;;;;6147293;29;20297;-82
2022/04/19 04:08:07;;;;;;;36.70;16.38;;;;;;;;;;6129811;29;20087;-82
2022/04/19 04:11:07;;;;;;;44.15;20.20;;;;;;;;;;6122792;29;20067;-82
2022/04/19 04:14:08;;;;;;;35.23;16.40;;;;;;;;;;6106696;29;20090;-82
2022/04/19 04:17:08;;;;;;;35.80;17.63;;;;;;;;;;6124294;29;20271;-82
2022/04/19 04:20:09;;;;;;;38.63;19.58;;;;;;;;;;6130269;29;20262;-81
2022/04/19 04:23:09;;;;;;;38.10;17.25;;;;;;;;;;6148058;29;20023;-81
2022/04/19 04:26:09;;;;;;;39.42;16.92;;;;;;;;;;6150377;28;20479;-81
2022/04/19 04:29:09;;;;;;;39.13;19.10;;;;;;;;;;6148320;29;20023;-81
2022/04/19 04:32:10;;;;;;;36.67;19.48;;;;;;;;;;6147495;29;20273;-81
2022/04/19 04:35:10;;;;;;;38.38;19.05;;;;;;;;;;6147848;29;20027;-81
2022/04/19 04:38:11;;;;;;;39.72;18.35;;;;;;;;;;6146300;28;20038;-82
2022/04/19 04:41:11;;;;;;;41.47;18.27;;;;;;;;;;6148576;29;20026;-82
2022/04/19 04:44:12;;;;;;;48.58;21.63;;;;;;;;;;6130189;29;20259;-82
2022/04/19 04:50:34;;;;;;;40.58;21.25;;;;;;;;;;6147236;28;20039;-82
2022/04/19 04:53:34;;;;;;;50.88;22.38;;;;;;;;;;6128135;29;20058;-82
2022/04/19 04:56:34;;;;;;;41.60;20.30;;;;;;;;;;6125392;29;20050;-82
2022/04/19 04:59:35;;;;;;;47.67;19.23;;;;;;;;;;6146290;29;20670;-82
2022/04/19 05:02:35;;;;;;;43.13;18.50;;;;;;;;;;6129440;29;20030;-82
2022/04/19 05:05:35;;;;;;;40.28;18.10;;;;;;;;;;6147035;29;20031;-82
2022/04/19 05:08:36;;;;;;;43.57;18.90;;;;;;;;;;6144757;29;20033;-82
2022/04/19 05:11:36;;;;;;;39.70;19.15;;;;;;;;;;6129403;29;20271;-82
2022/04/19 05:14:37;;;;;;;48.88;21.60;;;;;;;;;;6129290;29;20103;-82
2022/04/19 05:17:37;;;;;;;41.75;20.73;;;;;;;;;;6148942;29;20459;-82
2022/04/19 05:20:37;;;;;;;37.17;18.20;;;;;;;;;;6145833;29;20034;-81
2022/04/19 05:23:37;;;;;;;44.60;17.80;;;;;;;;;;6150775;29;20472;-81
2022/04/19 05:26:38;;;;;;;44.47;21.08;;;;;;;;;;6149670;29;20062;-81
2022/04/19 05:29:38;;;;;;;37.70;18.23;;;;;;;;;;6125882;29;20030;-81
2022/04/19 05:32:38;;;;;;;36.37;16.93;;;;;;;;;;6125542;29;20035;-81
2022/04/19 05:35:38;;;;;;;41.38;19.83;;;;;;;;;;6132657;29;20295;-81
2022/04/19 05:38:39;;;;;;;44.63;21.52;;;;;;;;;;6149043;29;20035;-81
2022/04/19 05:41:40;;;;;;;39.77;18.93;;;;;;;;;;6132796;29;20177;-81
2022/04/19 05:44:40;;;;;;;43.07;19.77;;;;;;;;;;6148170;29;20259;-82
2022/04/19 05:47:40;;;;;;;47.95;23.33;;;;;;;;;;6148062;29;20534;-82
2022/04/19 05:50:41;;;;;;;48.90;24.10;;;;;;;;;;6148734;29;20106;-81
2022/04/19 05:53:41;;;;;;;46.58;21.80;;;;;;;;;;6129939;29;20475;-81
2022/04/19 05:56:41;;;;;;;48.85;25.00;;;;;;;;;;6141465;29;20039;-81
2022/04/19 05:59:41;;;;;;;43.78;22.77;;;;;;;;;;6137341;28;20277;-81
2022/04/19 06:06:01;;;;;;;45.88;22.30;;;;;;;;;;6145623;29;20039;-82
2022/04/19 06:09:01;;;;;;;38.15;21.60;;;;;;;;;;6130933;29;20030;-83
2022/04/19 06:12:01;;;;;;;40.28;21.65;;;;;;;;;;6144272;28;20645;-82
2022/04/19 06:15:02;;;;;;;35.37;19.43;;;;;;;;;;6137902;28;20034;-82
2022/04/19 06:18:02;;;;;;;37.93;23.40;;;;;;;;;;6140241;28;20338;-82
2022/04/19 06:21:05;;;;;;;38.30;21.53;;;;;;;;;;6135213;29;20387;-82
2022/04/19 06:24:05;;;;;;;33.78;19.98;;;;;;;;;;6151596;28;20023;-82
2022/04/19 06:27:08;;;;;;;36.90;19.97;;;;;;;;;;6151007;28;20059;-82
2022/04/19 06:30:09;;;;;;;37.63;18.88;;;;;;;;;;6134313;29;20130;-82
2022/04/19 06:33:09;;;;;;;33.78;18.75;;;;;;;;;;6136547;29;20117;-83
2022/04/19 06:36:10;;;;;;;32.07;20.17;;;;;;;;;;6132379;29;20414;-82
2022/04/19 06:39:10;;;;;;;39.07;21.60;;;;;;;;;;6149024;29;20057;-83
2022/04/19 06:42:11;;;;;;;31.13;19.87;;;;;;;;;;6150345;29;20023;-83
2022/04/19 06:45:11;;;;;;;30.47;18.60;;;;;;;;;;6133841;29;20375;-83
2022/04/19 06:48:11;;;;;;;31.80;16.93;;;;;;;;;;6150359;29;20030;-82
2022/04/19 06:51:12;;;;;;;28.20;17.83;;;;;;;;;;6150349;29;20237;-82
2022/04/19 06:54:12;;;;;;;33.97;20.23;;;;;;;;;;6133473;28;20030;-82
2022/04/19 06:57:12;;;;;;;34.60;20.37;;;;;;;;;;6134257;29;20395;-82
2022/04/19 07:00:13;;;;;;;26.23;16.30;;;;;;;;;;6142503;28;20027;-83
2022/04/19 07:03:14;;;;;;;28.83;17.27;;;;;;;;;;6133903;29;20034;-82
2022/04/19 07:06:14;;;;;;;27.70;17.80;;;;;;;;;;6153238;28;21413;-82
2022/04/19 07:09:14;;;;;;;33.57;18.83;;;;;;;;;;6132090;29;20074;-81
2022/04/19 07:12:15;;;;;;;26.03;15.73;;;;;;;;;;6148282;28;20023;-81
2022/04/19 07:15:16;;;;;;;29.38;16.50;;;;;;;;;;6148683;28;20034;-81
2022/04/19 07:18:17;;;;;;;29.93;16.80;;;;;;;;;;6132044;29;20031;-82
2022/04/19 07:27:59;;;;;;;20.20;12.85;;;;;;;;;;6151210;28;20513;-82
2022/04/19 07:30:59;;;;;;;12.93;7.40;;;;;;;;;;6146868;29;20098;-81
2022/04/19 07:33:59;;;;;;;19.30;8.40;;;;;;;;;;6145145;28;20042;-81
2022/04/19 07:36:59;;;;;;;17.53;9.13;;;;;;;;;;6145918;29;20487;-82
2022/04/19 07:40:00;;;;;;;13.27;8.63;;;;;;;;;;6145840;29;20023;-81
2022/04/19 07:43:00;;;;;;;22.37;11.03;;;;;;;;;;6140402;29;20054;-81
2022/04/19 07:46:02;;;;;;;19.40;9.90;;;;;;;;;;6146275;29;20011;-81
2022/04/19 07:49:02;;;;;;;17.35;9.93;;;;;;;;;;6145148;29;20030;-81
2022/04/19 07:52:03;;;;;;;16.13;9.75;;;;;;;;;;6147160;28;20023;-81
2022/04/19 07:55:03;;;;;;;15.63;8.50;;;;;;;;;;6137679;28;20026;-81
2022/04/19 07:58:03;;;;;;;22.03;11.23;;;;;;;;;;6148345;29;20038;-81
2022/04/19 08:01:04;;;;;;;21.63;13.47;;;;;;;;;;6148186;29;20491;-81
2022/04/19 08:04:04;;;;;;;20.90;12.87;;;;;;;;;;6148285;28;20034;-81
2022/04/19 08:07:04;;;;;;;17.87;10.53;;;;;;;;;;6128488;28;20038;-81
2022/04/19 08:10:05;;;;;;;19.90;10.40;;;;;;;;;;6145807;28;20035;-81
2022/04/19 08:13:06;;;;;;;22.70;9.90;;;;;;;;;;6147865;29;20394;-81
2022/04/19 08:16:06;;;;;;;22.38;10.77;;;;;;;;;;6122831;29;20027;-81
2022/04/19 08:19:06;;;;;;;16.80;9.73;;;;;;;;;;6132843;29;20133;-82
2022/04/19 08:22:06;;;;;;;14.80;8.33;;;;;;;;;;6149384;29;20093;-82
2022/04/19 08:25:07;;;;;;;21.83;10.98;;;;;;;;;;6146446;29;20410;-82
2022/04/19 08:28:07;;;;;;;14.70;10.10;;;;;;;;;;6128964;29;20051;-82
2022/04/19 08:31:07;;;;;;;20.98;11.13;;;;;;;;;;6152188;29;20035;-81
2022/04/19 08:34:07;;;;;;;19.08;9.00;;;;;;;;;;6146491;29;20520;-81
2022/04/19 08:37:09;;;;;;;17.95;10.95;;;;;;;;;;6141643;29;20023;-81
2022/04/19 08:40:11;;;;;;;18.27;10.68;;;;;;;;;;6144927;29;20360;-81
2022/04/19 08:43:11;;;;;;;;;;;;;;;;;;6144763;28;20099;-81
2022/04/19 08:46:12;;;;;;;21.52;10.80;;;;;;;;;;6150820;28;20279;-81
2022/04/19 08:49:15;;;;;;;20.48;10.73;;;;;;;;;;6137485;29;20030;-81
2022/04/19 08:52:16;;;;;;;18.55;10.30;;;;;;;;;;6154127;29;20055;-81
2022/04/19 08:58:55;;;;;;;22.05;10.13;;;;;;;;;;6058124;29;20056;-81
2022/04/19 09:01:55;;;;;;;24.17;12.07;;;;;;;;;;6057138;29;20025;-81
2022/04/19 09:05:11;;;;;;;16.40;10.35;;;;;;;;;;6132913;29;20278;-81
2022/04/19 09:08:12;;;;;;;22.25;12.30;;;;;;;;;;6136194;29;20376;-81
2022/04/19 09:11:13;;;;;;;21.90;12.18;;;;;;;;;;6152028;29;20031;-80
2022/04/19 09:14:13;;;;;;;20.03;11.53;;;;;;;;;;6154083;29;20106;-81
2022/04/19 09:17:13;;;;;;;19.00;11.10;;;;;;;;;;6136511;29;20744;-80
2022/04/19 09:20:15;;;;;;;20.17;10.85;;;;;;;;;;6136968;29;20262;-80
2022/04/19 09:23:15;;;;;;;16.77;10.60;;;;;;;;;;6150556;29;20027;-80
2022/04/19 09:26:15;;;;;;;19.15;10.50;;;;;;;;;;6134174;28;20027;-80
2022/04/19 09:29:22;;;;;;;20.55;11.40;;;;;;;;;;6151562;29;20023;-80
2022/04/19 09:32:23;;;;;;;25.88;12.85;;;;;;;;;;6149385;29;20042;-80
2022/04/19 09:35:27;;;;;;;20.77;12.97;;;;;;;;;;6137460;29;20321;-80
2022/04/19 09:38:34;;;;;;;22.95;13.00;;;;;;;;;;6150200;29;20027;-80
2022/04/19 09:41:34;;;;;;;20.92;12.50;;;;;;;;;;6146076;29;20114;-80
2022/04/19 09:44:52;;;;;;;19.47;10.83;;;;;;;;;;6151989;29;20412;-80
2022/04/19 09:47:53;;;;;;;21.23;11.85;;;;;;;;;;6134501;29;20118;-80
2022/04/19 09:50:58;;;;;;;20.10;10.27;;;;;;;;;;6128434;29;20079;-80
2022/04/19 09:53:58;;;;;;;23.95;11.40;;;;;;;;;;6142709;28;20030;-80
2022/04/19 09:57:06;;;;;;;19.07;11.97;;;;;;;;;;6153364;28;20027;-80
2022/04/19 10:00:08;;;;;;;17.48;11.85;;;;;;;;;;6152593;29;20078;-80
2022/04/19 10:09:46;;;;;;;18.80;10.07;;;;;;;;;;6151047;29;20035;-81
2022/04/19 10:12:46;;;;;;;19.50;11.63;;;;;;;;;;6148749;28;20556;-80
2022/04/19 10:15:47;;;;;;;16.92;11.00;;;;;;;;;;6147357;29;20023;-80
2022/04/19 10:18:47;;;;;;;23.17;12.00;;;;;;;;;;6128435;29;20028;-80
2022/04/19 10:21:48;;;;;;;20.23;11.18;;;;;;;;;;6145851;29;20019;-80
2022/04/19 10:24:51;;;;;;;19.05;11.10;;;;;;;;;;6133725;29;20011;-79
2022/04/19 10:28:02;;;;;;;20.15;11.38;;;;;;;;;;6130020;29;20074;-79
2022/04/19 10:31:03;;;;;;;19.75;10.85;;;;;;;;;;6127857;29;20023;-80
2022/04/19 10:34:05;;;;;;;17.83;9.30;;;;;;;;;;6126972;29;20027;-81
2022/04/19 10:37:11;;;;;;;21.60;8.77;;;;;;;;;;6139263;29;20046;-81
2022/04/19 10:40:14;;;;;;;22.13;10.90;;;;;;;;;;6146445;29;20038;-81
2022/04/19 10:43:14;;;;;;;23.38;10.88;;;;;;;;;;6129668;28;20015;-80
2022/04/19 10:46:16;;;;;;;20.70;11.40;;;;;;;;;;6129895;29;20094;-80
2022/04/19 10:49:23;;;;;;;24.98;12.25;;;;;;;;;;6147369;28;20027;-80
2022/04/19 10:52:35;;;;;;;22.88;12.20;;;;;;;;;;6116032;28;20031;-80
2022/04/19 10:55:55;;;;;;;25.00;11.10;;;;;;;;;;6145132;28;20061;-80
2022/04/19 10:58:55;;;;;;;22.60;11.77;;;;;;;;;;6145729;29;20534;-80
2022/04/19 11:01:55;;;;;;;15.43;8.70;;;;;;;;;;6150307;28;20019;-81
2022/04/19 11:04:55;;;;;;;21.93;9.43;;;;;;;;;;6148020;29;20093;-80
2022/04/19 11:07:56;;;;;;;20.85;9.88;;;;;;;;;;6149789;29;20289;-80
2022/04/19 11:10:56;;;;;;;15.43;9.10;;;;;;;;;;6137526;28;20035;-80
2022/04/19 11:14:15;;;;;;;18.55;8.82;;;;;;;;;;6145816;29;20346;-80
2022/04/19 11:17:20;;;;;;;20.80;10.35;;;;;;;;;;6147685;29;20039;-80
2022/04/19 11:20:20;;;;;;;18.38;10.50;;;;;;;;;;6130721;29;20395;-80
2022/04/19 11:23:27;;;;;;;23.52;11.23;;;;;;;;;;6135701;28;20058;-80
2022/04/19 11:26:30;;;;;;;20.40;11.85;;;;;;;;;;6148281;28;20039;-81
2022/04/19 11:29:47;;;;;;;20.35;11.80;;;;;;;;;;6139954;28;20031;-81
2022/04/19 11:32:52;;;;;;;17.90;11.25;;;;;;;;;;6119149;29;20019;-80
2022/04/19 11:36:09;;;;;;;17.95;9.13;;;;;;;;;;6145996;29;20357;-80
2022/04/19 11:49:30;;;;;;;19.83;13.48;;;;;;;;;;6146019;29;20031;-81
2022/04/19 11:52:31;;;;;;;19.33;11.50;;;;;;;;;;6146353;29;20496;-80
2022/04/19 11:55:31;;;;;;;15.27;9.88;;;;;;;;;;6149474;28;20028;-81
2022/04/19 11:58:33;;;;;;;19.00;10.03;;;;;;;;;;6133721;29;20030;-80
2022/04/19 12:01:33;;;;;;;14.73;8.93;;;;;;;;;;6146864;29;20326;-79
2022/04/19 12:04:33;;;;;;;16.57;9.57;;;;;;;;;;6144740;29;20012;-80
2022/04/19 12:07:44;;;;;;;16.27;9.77;;;;;;;;;;6130455;29;20271;-80
2022/04/19 12:10:44;;;;;;;15.75;10.43;;;;;;;;;;6126238;29;20698;-80
2022/04/19 12:13:48;;;;;;;18.00;9.30;;;;;;;;;;6148131;29;20031;-80
2022/04/19 12:16:54;;;;;;;15.73;9.30;;;;;;;;;;6127721;29;20314;-81
2022/04/19 12:20:01;;;;;;;17.80;10.40;;;;;;;;;;6128208;28;20042;-81
2022/04/19 12:23:01;;;;;;;19.23;10.85;;;;;;;;;;6117520;29;20074;-80
2022/04/19 12:26:03;;;;;;;18.88;10.52;;;;;;;;;;6129217;28;20019;-80
2022/04/19 12:29:13;;;;;;;14.30;8.20;;;;;;;;;;6145080;29;20411;-80
2022/04/19 12:32:13;;;;;;;15.18;9.80;;;;;;;;;;6113239;29;20031;-80
2022/04/19 12:35:14;;;;;;;18.57;9.73;;;;;;;;;;6144181;29;20168;-79
2022/04/19 12:38:17;;;;;;;17.42;9.40;;;;;;;;;;6133675;28;20290;-79
2022/04/19 12:41:18;;;;;;;13.18;8.40;;;;;;;;;;6123564;29;20661;-79
2022/04/19 12:44:19;;;;;;;13.88;7.65;;;;;;;;;;6143490;28;20011;-79
2022/04/19 12:47:25;;;;;;;14.60;8.20;;;;;;;;;;6144034;29;20031;-79
2022/04/19 12:50:27;;;;;;;16.48;8.88;;;;;;;;;;6143272;28;20070;-79
2022/04/19 12:53:27;;;;;;;17.20;9.30;;;;;;;;;;6142842;28;20023;-79
2022/04/19 12:56:27;;;;;;;11.70;7.00;;;;;;;;;;6146173;28;20026;-79
2022/04/19 12:59:31;;;;;;;14.80;8.50;;;;;;;;;;6144864;29;20055;-79
2022/04/19 13:02:32;;;;;;;13.45;8.35;;;;;;;;;;6127654;29;20051;-79
2022/04/19 13:12:19;;;;;;;14.00;7.47;;;;;;;;;;6145333;28;20051;-80
2022/04/19 13:15:20;;;;;;;13.52;6.40;;;;;;;;;;6144213;29;20098;-80
2022/04/19 13:18:20;;;;;;;11.10;6.30;;;;;;;;;;6127281;29;20011;-80
2022/04/19 13:21:20;;;;;;;12.03;6.77;;;;;;;;;;6142482;29;20570;-79
2022/04/19 13:24:21;;;;;;;12.93;6.97;;;;;;;;;;6132343;28;20542;-80
2022/04/19 13:27:21;;;;;;;11.30;6.47;;;;;;;;;;6144535;28;20093;-80
2022/04/19 13:30:22;;;;;;;10.03;5.77;;;;;;;;;;6144808;29;20023;-80
2022/04/19 13:33:22;;;;;;;17.23;9.10;;;;;;;;;;6146750;28;20050;-80
2022/04/19 13:36:23;;;;;;;11.53;6.43;;;;;;;;;;6133637;29;20407;-80
2022/04/19 13:39:24;;;;;;;10.43;5.80;;;;;;;;;;6129842;29;20050;-80
2022/04/19 13:42:24;;;;;;;12.60;7.65;;;;;;;;;;6128967;29;20031;-80
2022/04/19 13:45:25;;;;;;;13.07;7.63;;;;;;;;;;6150247;29;20182;-80
2022/04/19 13:48:26;;;;;;;10.47;6.20;;;;;;;;;;6148083;29;20110;-80
2022/04/19 13:51:26;;;;;;;12.30;5.67;;;;;;;;;;6148958;29;20027;-80
2022/04/19 13:54:27;;;;;;;15.63;6.43;;;;;;;;;;6145738;28;20353;-80
2022/04/19 13:57:27;;;;;;;9.57;6.18;;;;;;;;;;6132711;29;20031;-80
2022/04/19 14:00:28;;;;;;;11.32;6.15;;;;;;;;;;6147935;29;20094;-80
2022/04/19 14:03:28;;;;;;;10.90;5.38;;;;;;;;;;6148127;29;20019;-80
2022/04/19 14:06:30;;;;;;;11.57;6.43;;;;;;;;;;6143002;28;20042;-80
2022/04/19 14:09:30;;;;;;;;;;;;;;;;;;6127950;28;20028;-79
2022/04/19 14:12:30;;;;;;;15.43;7.32;;;;;;;;;;6132270;29;19917;-79
2022/04/19 14:15:31;;;;;;;11.60;8.10;;;;;;;;;;6145141;29;20019;-79
2022/04/19 14:18:32;;;;;;;11.27;7.20;;;;;;;;;;6131642;29;20283;-79
2022/04/19 14:21:32;;;;;;;12.48;7.18;;;;;;;;;;6132228;29;20448;-79
2022/04/19 14:24:33;;;;;;;9.15;5.72;;;;;;;;;;6133374;28;20007;-79
2022/04/19 14:27:33;;;;;;;8.40;5.32;;;;;;;;;;6147580;28;20129;-79
2022/04/19 14:33:53;;;;;;;9.50;4.97;;;;;;;;;;6131564;29;20039;-79
2022/04/19 14:36:53;;;;;;;12.88;5.85;;;;;;;;;;6134644;28;20399;-79
2022/04/19 14:39:54;;;;;;;9.18;5.20;;;;;;;;;;6129007;29;20552;-79
2022/04/19 14:42:54;;;;;;;9.40;5.27;;;;;;;;;;6146336;29;20094;-79
2022/04/19 14:45:54;;;;;;;8.83;4.67;;;;;;;;;;6131025;29;20254;-79
2022/04/19 14:48:54;;;;;;;10.43;5.67;;;;;;;;;;6148236;29;20261;-80
2022/04/19 14:55:15;;;;;;;10.50;5.63;;;;;;;;;;6149013;28;20700;-80
2022/04/19 14:58:15;;;;;;;10.38;5.30;;;;;;;;;;6148066;29;20447;-80
2022/04/19 15:01:17;;;;;;;9.18;4.72;;;;;;;;;;6142415;29;20026;-80
2022/04/19 15:04:17;;;;;;;11.27;5.32;;;;;;;;;;6132314;29;20019;-80
2022/04/19 15:07:17;;;;;;;9.18;5.38;;;;;;;;;;6147972;28;20502;-80
2022/04/19 15:10:18;;;;;;;10.52;5.75;;;;;;;;;;6129394;29;20023;-79
2022/04/19 15:13:18;;;;;;;9.18;5.95;;;;;;;;;;6142757;29;20404;-80
2022/04/19 15:16:18;;;;;;;10.43;5.60;;;;;;;;;;6147036;28;20022;-80
2022/04/19 15:19:18;;;;;;;7.30;5.15;;;;;;;;;;6149658;29;20274;-80
2022/04/19 15:22:19;;;;;;;6.40;4.38;;;;;;;;;;6147030;29;20016;-80
2022/04/19 15:25:19;;;;;;;9.13;4.80;;;;;;;;;;6129408;28;20608;-81
2022/04/19 15:28:19;;;;;;;15.00;6.50;;;;;;;;;;6143629;29;20058;-80
2022/04/19 15:31:20;;;;;;;14.38;6.10;;;;;;;;;;6128746;29;20506;-80
2022/04/19 15:34:20;;;;;;;13.27;5.33;;;;;;;;;;6129842;29;20115;-80
2022/04/19 15:37:20;;;;;;;9.18;4.82;;;;;;;;;;6147047;29;20278;-80
2022/04/19 15:40:21;;;;;;;9.57;5.07;;;;;;;;;;6125861;29;20256;-80
2022/04/19 15:43:21;;;;;;;8.00;4.17;;;;;;;;;;6142433;29;20279;-80
2022/04/19 15:46:21;;;;;;;8.55;5.13;;;;;;;;;;6140484;29;20278;-80
2022/04/19 15:49:22;;;;;;;9.97;5.57;;;;;;;;;;6144403;29;20481;-80
2022/04/19 15:52:22;;;;;;;9.27;4.70;;;;;;;;;;6125902;29;20270;-80
2022/04/19 15:55:23;;;;;;;10.52;4.43;;;;;;;;;;6123659;28;20395;-80
2022/04/19 15:58:23;;;;;;;8.45;4.82;;;;;;;;;;6129153;29;20105;-80
2022/04/19 16:01:23;;;;;;;13.93;5.63;;;;;;;;;;6142999;29;20015;-79
2022/04/19 16:04:23;;;;;;;8.05;4.80;;;;;;;;;;6145167;29;20016;-79
2022/04/19 16:07:24;;;;;;;10.83;6.23;;;;;;;;;;6144561;29;20015;-79
2022/04/19 16:10:24;;;;;;;11.93;6.40;;;;;;;;;;6127238;29;20274;-80
2022/04/19 16:13:25;;;;;;;10.27;5.65;;;;;;;;;;6126805;29;20031;-80
2022/04/19 16:23:21;;;;;;;11.43;5.57;;;;;;;;;;6144465;29;20114;-80
2022/04/19 16:26:21;;;;;;;11.43;5.53;;;;;;;;;;6126865;29;20035;-79
2022/04/19 16:29:22;;;;;;;9.65;5.63;;;;;;;;;;6127707;29;20035;-80
2022/04/19 16:32:22;;;;;;;8.63;4.65;;;;;;;;;;6135274;29;20023;-80
2022/04/19 16:35:22;;;;;;;17.17;9.02;;;;;;;;;;6128869;29;20061;-81
2022/04/19 16:38:22;;;;;;;14.07;7.30;;;;;;;;;;6145559;29;20467;-80
2022/04/19 16:41:23;;;;;;;13.57;7.73;;;;;;;;;;6143239;29;20269;-80
2022/04/19 16:44:23;;;;;;;16.25;8.13;;;;;;;;;;6145089;29;20273;-81
2022/04/19 16:47:25;;;;;;;11.23;6.43;;;;;;;;;;6127771;29;20035;-81
2022/04/19 16:50:25;;;;;;;16.23;7.50;;;;;;;;;;6125088;28;20273;-80
2022/04/19 16:53:26;;;;;;;10.90;6.22;;;;;;;;;;6142751;29;20031;-80
2022/04/19 16:56:26;;;;;;;13.25;6.47;;;;;;;;;;6127819;29;20391;-80
2022/04/19 16:59:26;;;;;;;18.60;8.40;;;;;;;;;;6135790;29;20114;-80
2022/04/19 17:02:26;;;;;;;18.25;9.07;;;;;;;;;;6127247;29;20275;-80
2022/04/19 17:05:27;;;;;;;15.45;7.97;;;;;;;;;;6129583;29;20118;-80
2022/04/19 17:08:27;;;;;;;15.83;8.00;;;;;;;;;;6147481;28;20019;-80
2022/04/19 17:11:28;;;;;;;10.13;6.22;;;;;;;;;;6152739;29;20265;-80
2022/04/19 17:14:28;;;;;;;14.15;7.15;;;;;;;;;;6153942;29;20027;-80
2022/04/19 17:17:28;;;;;;;13.45;6.68;;;;;;;;;;6140317;29;20030;-80
2022/04/19 17:20:28;;;;;;;9.57;5.50;;;;;;;;;;6134638;29;20031;-80
2022/04/19 17:23:29;;;;;;;10.52;5.45;;;;;;;;;;6136103;29;20356;-81
2022/04/19 17:26:29;;;;;;;11.55;6.50;;;;;;;;;;6152382;28;20408;-80
2022/04/19 17:29:32;;;;;;;11.77;6.25;;;;;;;;;;6152380;29;20031;-80
2022/04/19 17:32:33;;;;;;;14.45;7.03;;;;;;;;;;6150622;28;20082;-80
2022/04/19 17:35:34;;;;;;;17.25;9.73;;;;;;;;;;6141807;29;20027;-80
2022/04/19 17:38:34;;;;;;;13.73;7.10;;;;;;;;;;6151702;29;20490;-80
2022/04/19 17:41:35;;;;;;;12.60;7.28;;;;;;;;;;6135945;29;20687;-80
2022/04/19 17:44:36;;;;;;;17.55;8.68;;;;;;;;;;6153875;29;20027;-81
2022/04/19 17:47:36;;;;;;;16.58;8.02;;;;;;;;;;6135608;29;20042;-82
2022/04/19 17:57:14;;;;;;;15.93;8.27;;;;;;;;;;6148650;29;20035;-82
2022/04/19 18:00:15;;;;;;;19.65;8.45;;;;;;;;;;6135451;29;20035;-83
2022/04/19 18:03:15;;;;;;;21.02;9.45;;;;;;;;;;6152247;29;20038;-82
2022/04/19 18:06:15;;;;;;;17.75;9.07;;;;;;;;;;6134763;29;20074;-82
2022/04/19 18:09:16;;;;;;;24.48;10.27;;;;;;;;;;6134454;29;20035;-82
2022/04/19 18:12:16;;;;;;;25.90;11.68;;;;;;;;;;6133436;29;20058;-82
2022/04/19 18:15:16;;;;;;;31.00;13.83;;;;;;;;;;6134496;28;20031;-81
2022/04/19 18:18:20;;;;;;;24.07;11.13;;;;;;;;;;6134155;28;20298;-81
2022/04/19 18:21:20;;;;;;;31.67;14.65;;;;;;;;;;6133716;29;20275;-81
2022/04/19 18:27:40;;;;;;;24.42;12.65;;;;;;;;;;6149496;28;20067;-80
2022/04/19 18:30:40;;;;;;;26.55;12.55;;;;;;;;;;6139584;28;20399;-80
2022/04/19 18:33:40;;;;;;;33.60;16.75;;;;;;;;;;6134066;29;20031;-81
2022/04/19 18:36:41;;;;;;;30.30;14.00;;;;;;;;;;6135008;29;20034;-81
2022/04/19 18:39:41;;;;;;;33.90;14.80;;;;;;;;;;6127489;29;20019;-81
2022/04/19 18:42:41;;;;;;;31.13;14.57;;;;;;;;;;6131341;29;20090;-81
2022/04/19 18:45:41;;;;;;;40.97;15.23;;;;;;;;;;6152393;29;20305;-82
2022/04/19 18:48:41;;;;;;;43.70;16.45;;;;;;;;;;6136880;28;20298;-81
2022/04/19 18:51:42;;;;;;;40.42;18.25;;;;;;;;;;6140276;29;20119;-81
2022/04/19 18:54:42;;;;;;;41.75;19.27;;;;;;;;;;6134374;29;20023;-81
2022/04/19 18:57:43;;;;;;;42.20;18.92;;;;;;;;;;6137005;29;20057;-82
2022/04/19 19:00:44;;;;;;;34.00;15.90;;;;;;;;;;6153163;29;20030;-82